sensor_id;sensor_type;location;lat;lon;timestamp;pressure;altitude;pressure_sealevel;temperature;humidity
20115;BME280;10218;42.874;25.320;2023-07-13T00:02:05;97255.69;;;22.56;100.00
20115;BME280;10218;42.874;25.320;2023-07-13T00:04:33;97253.41;;;22.65;100.00
20115;BME280;10218;42.874;25.320;2023-07-13T00:07:00;97246.50;;;22.74;100.00
20115;BME280;10218;42.874;25.320;2023-07-13T00:09:27;97249.25;;;22.45;100.00
20115;BME280;10218;42.874;25.320;2023-07-13T00:11:56;97254.53;;;22.52;100.00
20115;BME280;10218;42.874;25.320;2023-07-13T00:14:25;97243.31;;;22.48;100.00
20115;BME280;10218;42.874;25.320;2023-07-13T00:16:53;97248.72;;;22.60;100.00
20115;BME280;10218;42.874;25.320;2023-07-13T00:19:20;97238.88;;;22.59;100.00
20115;BME280;10218;42.874;25.320;2023-07-13T00:21:48;97243.78;;;22.45;100.00
20115;BME280;10218;42.874;25.320;2023-07-13T00:24:17;97236.13;;;22.42;100.00
20115;BME280;10218;42.874;25.320;2023-07-13T00:26:50;97240.00;;;22.46;100.00
20115;BME280;10218;42.874;25.320;2023-07-13T00:29:17;97235.16;;;22.48;100.00
20115;BME280;10218;42.874;25.320;2023-07-13T00:31:44;97225.00;;;22.60;100.00
20115;BME280;10218;42.874;25.320;2023-07-13T00:34:11;97232.59;;;22.58;100.00
20115;BME280;10218;42.874;25.320;2023-07-13T00:36:39;97234.59;;;22.63;100.00
20115;BME280;10218;42.874;25.320;2023-07-13T00:39:06;97222.34;;;22.32;100.00
20115;BME280;10218;42.874;25.320;2023-07-13T00:41:33;97236.53;;;22.34;100.00
20115;BME280;10218;42.874;25.320;2023-07-13T00:44:02;97234.09;;;22.66;100.00
20115;BME280;10218;42.874;25.320;2023-07-13T00:46:32;97226.94;;;22.77;100.00
20115;BME280;10218;42.874;25.320;2023-07-13T00:49:04;97229.50;;;23.00;100.00
20115;BME280;10218;42.874;25.320;2023-07-13T00:51:39;97232.63;;;23.09;100.00
20115;BME280;10218;42.874;25.320;2023-07-13T00:54:11;97222.62;;;23.14;100.00
20115;BME280;10218;42.874;25.320;2023-07-13T00:56:41;97224.38;;;23.03;100.00
20115;BME280;10218;42.874;25.320;2023-07-13T00:59:11;97224.38;;;23.03;100.00
20115;BME280;10218;42.874;25.320;2023-07-13T01:01:39;97230.19;;;22.90;100.00
20115;BME280;10218;42.874;25.320;2023-07-13T01:04:06;97228.53;;;22.89;100.00
20115;BME280;10218;42.874;25.320;2023-07-13T01:06:36;97211.03;;;22.85;100.00
20115;BME280;10218;42.874;25.320;2023-07-13T01:09:04;97221.72;;;22.92;100.00
20115;BME280;10218;42.874;25.320;2023-07-13T01:11:33;97219.75;;;22.87;100.00
20115;BME280;10218;42.874;25.320;2023-07-13T01:14:02;97217.94;;;22.93;100.00
20115;BME280;10218;42.874;25.320;2023-07-13T01:16:32;97216.63;;;22.79;100.00
20115;BME280;10218;42.874;25.320;2023-07-13T01:18:59;97219.50;;;22.72;100.00
20115;BME280;10218;42.874;25.320;2023-07-13T01:21:31;97232.81;;;22.40;100.00
20115;BME280;10218;42.874;25.320;2023-07-13T01:23:59;97224.66;;;22.40;100.00
20115;BME280;10218;42.874;25.320;2023-07-13T01:26:26;97227.47;;;22.45;100.00
20115;BME280;10218;42.874;25.320;2023-07-13T01:28:54;97227.53;;;22.50;100.00
20115;BME280;10218;42.874;25.320;2023-07-13T01:31:23;97221.03;;;22.51;100.00
20115;BME280;10218;42.874;25.320;2023-07-13T01:33:50;97208.50;;;22.50;100.00
20115;BME280;10218;42.874;25.320;2023-07-13T01:36:20;97205.53;;;22.52;100.00
20115;BME280;10218;42.874;25.320;2023-07-13T01:38:48;97223.19;;;22.66;100.00
20115;BME280;10218;42.874;25.320;2023-07-13T01:41:15;97189.53;;;22.55;100.00
20115;BME280;10218;42.874;25.320;2023-07-13T01:43:42;97214.47;;;22.64;100.00
20115;BME280;10218;42.874;25.320;2023-07-13T01:46:09;97219.75;;;22.71;100.00
20115;BME280;10218;42.874;25.320;2023-07-13T01:48:48;97193.50;;;22.48;100.00
20115;BME280;10218;42.874;25.320;2023-07-13T01:51:15;97215.38;;;22.70;100.00
20115;BME280;10218;42.874;25.320;2023-07-13T01:53:44;97209.34;;;22.68;100.00
20115;BME280;10218;42.874;25.320;2023-07-13T01:56:11;97184.91;;;22.39;100.00
20115;BME280;10218;42.874;25.320;2023-07-13T01:58:40;97211.47;;;22.66;100.00
20115;BME280;10218;42.874;25.320;2023-07-13T02:01:07;97185.56;;;22.46;100.00
20115;BME280;10218;42.874;25.320;2023-07-13T02:03:34;97222.94;;;22.68;100.00
20115;BME280;10218;42.874;25.320;2023-07-13T02:06:01;97223.38;;;22.59;100.00
20115;BME280;10218;42.874;25.320;2023-07-13T02:08:31;97221.41;;;22.88;100.00
20115;BME280;10218;42.874;25.320;2023-07-13T02:10:59;97187.47;;;22.62;100.00
20115;BME280;10218;42.874;25.320;2023-07-13T02:13:27;97216.63;;;22.79;100.00
20115;BME280;10218;42.874;25.320;2023-07-13T02:15:54;97222.28;;;22.60;100.00
20115;BME280;10218;42.874;25.320;2023-07-13T02:18:21;97218.00;;;22.65;100.00
20115;BME280;10218;42.874;25.320;2023-07-13T02:20:48;97222.34;;;22.66;100.00
20115;BME280;10218;42.874;25.320;2023-07-13T02:23:16;97221.88;;;22.52;100.00
20115;BME280;10218;42.874;25.320;2023-07-13T02:25:44;97209.69;;;22.54;100.00
20115;BME280;10218;42.874;25.320;2023-07-13T02:28:11;97222.19;;;22.55;100.00
20115;BME280;10218;42.874;25.320;2023-07-13T02:30:38;97224.59;;;22.52;100.00
20115;BME280;10218;42.874;25.320;2023-07-13T02:33:06;97208.16;;;22.47;100.00
20115;BME280;10218;42.874;25.320;2023-07-13T02:35:33;97221.03;;;22.51;100.00
20115;BME280;10218;42.874;25.320;2023-07-13T02:38:00;97223.03;;;22.39;100.00
20115;BME280;10218;42.874;25.320;2023-07-13T02:40:29;97223.69;;;22.46;100.00
20115;BME280;10218;42.874;25.320;2023-07-13T02:42:56;97230.91;;;22.41;100.00
20115;BME280;10218;42.874;25.320;2023-07-13T02:45:23;97221.84;;;22.35;100.00
20115;BME280;10218;42.874;25.320;2023-07-13T02:47:50;97219.22;;;22.40;100.00
20115;BME280;10218;42.874;25.320;2023-07-13T02:50:17;97210.56;;;22.43;100.00
20115;BME280;10218;42.874;25.320;2023-07-13T02:52:45;97224.00;;;22.33;100.00
20115;BME280;10218;42.874;25.320;2023-07-13T02:55:12;97226.72;;;22.33;100.00
20115;BME280;10218;42.874;25.320;2023-07-13T02:57:39;97228.66;;;22.21;100.00
20115;BME280;10218;42.874;25.320;2023-07-13T03:00:08;97232.06;;;22.28;100.00
20115;BME280;10218;42.874;25.320;2023-07-13T03:02:35;97229.38;;;22.45;100.00
20115;BME280;10218;42.874;25.320;2023-07-13T03:05:04;97229.13;;;22.30;100.00
20115;BME280;10218;42.874;25.320;2023-07-13T03:07:32;97231.47;;;22.26;100.00
20115;BME280;10218;42.874;25.320;2023-07-13T03:09:59;97230.78;;;22.47;100.00
20115;BME280;10218;42.874;25.320;2023-07-13T03:12:27;97228.78;;;22.43;100.00
20115;BME280;10218;42.874;25.320;2023-07-13T03:14:54;97229.78;;;22.53;100.00
20115;BME280;10218;42.874;25.320;2023-07-13T03:17:21;97232.75;;;22.52;100.00
20115;BME280;10218;42.874;25.320;2023-07-13T03:19:49;97229.28;;;22.40;100.00
20115;BME280;10218;42.874;25.320;2023-07-13T03:22:18;97220.28;;;22.56;100.00
20115;BME280;10218;42.874;25.320;2023-07-13T03:24:45;97235.66;;;22.62;100.00
20115;BME280;10218;42.874;25.320;2023-07-13T03:27:13;97225.00;;;22.44;100.00
20115;BME280;10218;42.874;25.320;2023-07-13T03:29:41;97228.28;;;22.46;100.00
20115;BME280;10218;42.874;25.320;2023-07-13T03:32:09;97228.66;;;22.49;100.00
20115;BME280;10218;42.874;25.320;2023-07-13T03:34:36;97220.88;;;22.41;100.00
20115;BME280;10218;42.874;25.320;2023-07-13T03:37:04;97235.53;;;22.40;100.00
20115;BME280;10218;42.874;25.320;2023-07-13T03:39:31;97231.75;;;22.41;100.00
20115;BME280;10218;42.874;25.320;2023-07-13T03:41:59;97222.69;;;22.52;100.00
20115;BME280;10218;42.874;25.320;2023-07-13T03:44:27;97233.16;;;22.60;100.00
20115;BME280;10218;42.874;25.320;2023-07-13T03:46:54;97228.13;;;22.52;100.00
20115;BME280;10218;42.874;25.320;2023-07-13T03:49:22;97226.47;;;22.51;100.00
20115;BME280;10218;42.874;25.320;2023-07-13T03:51:49;97234.41;;;22.53;100.00
20115;BME280;10218;42.874;25.320;2023-07-13T03:54:18;97233.59;;;22.69;100.00
20115;BME280;10218;42.874;25.320;2023-07-13T03:56:45;97243.59;;;22.64;100.00
20115;BME280;10218;42.874;25.320;2023-07-13T03:59:13;97238.22;;;22.69;100.00
20115;BME280;10218;42.874;25.320;2023-07-13T04:01:40;97222.34;;;22.66;100.00
20115;BME280;10218;42.874;25.320;2023-07-13T04:04:07;97233.97;;;22.73;100.00
20115;BME280;10218;42.874;25.320;2023-07-13T04:06:34;97238.59;;;22.89;100.00
20115;BME280;10218;42.874;25.320;2023-07-13T04:09:03;97236.94;;;22.88;100.00
20115;BME280;10218;42.874;25.320;2023-07-13T04:11:33;97232.97;;;22.79;100.00
20115;BME280;10218;42.874;25.320;2023-07-13T04:14:02;97234.28;;;22.93;100.00
20115;BME280;10218;42.874;25.320;2023-07-13T04:16:30;97239.97;;;22.91;100.00
20115;BME280;10218;42.874;25.320;2023-07-13T04:18:57;97243.59;;;22.97;100.00
20115;BME280;10218;42.874;25.320;2023-07-13T04:21:29;97239.66;;;22.88;100.00
20115;BME280;10218;42.874;25.320;2023-07-13T04:23:57;97242.19;;;23.11;100.00
20115;BME280;10218;42.874;25.320;2023-07-13T04:26:24;97236.41;;;23.24;100.00
20115;BME280;10218;42.874;25.320;2023-07-13T04:28:51;97243.66;;;23.35;100.00
20115;BME280;10218;42.874;25.320;2023-07-13T04:31:19;97244.47;;;23.36;100.00
20115;BME280;10218;42.874;25.320;2023-07-13T04:33:46;97242.81;;;23.52;100.00
20115;BME280;10218;42.874;25.320;2023-07-13T04:36:17;97244.94;;;23.66;100.00
20115;BME280;10218;42.874;25.320;2023-07-13T04:38:45;97238.94;;;23.69;100.00
20115;BME280;10218;42.874;25.320;2023-07-13T04:41:13;97254.00;;;23.72;100.00
20115;BME280;10218;42.874;25.320;2023-07-13T04:43:41;97244.47;;;23.74;100.00
20115;BME280;10218;42.874;25.320;2023-07-13T04:46:12;97249.34;;;23.72;100.00
20115;BME280;10218;42.874;25.320;2023-07-13T04:48:39;97249.53;;;23.87;100.00
20115;BME280;10218;42.874;25.320;2023-07-13T04:51:06;97251.38;;;24.04;100.00
20115;BME280;10218;42.874;25.320;2023-07-13T04:53:34;97257.59;;;23.99;100.00
20115;BME280;10218;42.874;25.320;2023-07-13T04:56:04;97249.03;;;24.12;100.00
20115;BME280;10218;42.874;25.320;2023-07-13T04:58:33;97238.59;;;24.31;100.00
20115;BME280;10218;42.874;25.320;2023-07-13T05:01:02;97243.34;;;24.41;100.00
20115;BME280;10218;42.874;25.320;2023-07-13T05:03:30;97227.75;;;24.36;100.00
20115;BME280;10218;42.874;25.320;2023-07-13T05:05:59;97242.13;;;24.58;100.00
20115;BME280;10218;42.874;25.320;2023-07-13T05:08:27;97243.59;;;24.66;100.00
20115;BME280;10218;42.874;25.320;2023-07-13T05:10:54;97245.91;;;24.84;100.00
20115;BME280;10218;42.874;25.320;2023-07-13T05:13:21;97251.44;;;24.89;100.00
20115;BME280;10218;42.874;25.320;2023-07-13T05:16:03;97250.81;;;25.09;100.00
20115;BME280;10218;42.874;25.320;2023-07-13T05:18:31;97254.72;;;25.23;100.00
20115;BME280;10218;42.874;25.320;2023-07-13T05:21:04;97248.50;;;25.33;100.00
20115;BME280;10218;42.874;25.320;2023-07-13T05:23:33;97255.50;;;25.55;100.00
20115;BME280;10218;42.874;25.320;2023-07-13T05:26:02;97254.72;;;25.65;100.00
20115;BME280;10218;42.874;25.320;2023-07-13T05:28:30;97259.75;;;25.83;100.00
20115;BME280;10218;42.874;25.320;2023-07-13T05:30:58;97247.47;;;25.96;100.00
20115;BME280;10218;42.874;25.320;2023-07-13T05:33:26;97256.28;;;26.03;100.00
20115;BME280;10218;42.874;25.320;2023-07-13T05:35:53;97252.19;;;26.06;100.00
20115;BME280;10218;42.874;25.320;2023-07-13T05:38:20;97250.09;;;26.38;100.00
20115;BME280;10218;42.874;25.320;2023-07-13T05:40:48;97260.56;;;26.61;100.00
20115;BME280;10218;42.874;25.320;2023-07-13T05:43:15;97250.16;;;26.68;100.00
20115;BME280;10218;42.874;25.320;2023-07-13T05:45:42;97252.88;;;26.58;100.00
20115;BME280;10218;42.874;25.320;2023-07-13T05:48:09;97258.66;;;26.82;100.00
20115;BME280;10218;42.874;25.320;2023-07-13T05:50:36;97255.69;;;26.99;100.00
20115;BME280;10218;42.874;25.320;2023-07-13T05:53:04;97252.91;;;27.19;100.00
20115;BME280;10218;42.874;25.320;2023-07-13T05:55:32;97260.31;;;27.18;100.00
20115;BME280;10218;42.874;25.320;2023-07-13T05:58:00;97262.25;;;27.13;100.00
20115;BME280;10218;42.874;25.320;2023-07-13T06:00:27;97257.31;;;27.30;100.00
20115;BME280;10218;42.874;25.320;2023-07-13T06:02:55;97258.91;;;27.61;100.00
20115;BME280;10218;42.874;25.320;2023-07-13T06:05:23;97252.75;;;27.95;100.00
20115;BME280;10218;42.874;25.320;2023-07-13T06:07:50;97257.22;;;27.81;100.00
20115;BME280;10218;42.874;25.320;2023-07-13T06:10:17;97254.12;;;27.97;100.00
20115;BME280;10218;42.874;25.320;2023-07-13T06:12:44;97253.28;;;28.12;100.00
20115;BME280;10218;42.874;25.320;2023-07-13T06:15:11;97259.31;;;27.99;100.00
20115;BME280;10218;42.874;25.320;2023-07-13T06:17:39;97257.19;;;28.45;100.00
20115;BME280;10218;42.874;25.320;2023-07-13T06:20:06;97242.94;;;28.43;100.00
20115;BME280;10218;42.874;25.320;2023-07-13T06:22:33;97258.63;;;28.37;100.00
20115;BME280;10218;42.874;25.320;2023-07-13T06:25:01;97252.97;;;28.63;100.00
20115;BME280;10218;42.874;25.320;2023-07-13T06:27:28;97254.63;;;28.64;100.00
20115;BME280;10218;42.874;25.320;2023-07-13T06:29:56;97251.13;;;28.92;100.00
20115;BME280;10218;42.874;25.320;2023-07-13T06:32:24;97258.41;;;29.46;100.00
20115;BME280;10218;42.874;25.320;2023-07-13T06:34:51;97234.03;;;29.29;100.00
20115;BME280;10218;42.874;25.320;2023-07-13T06:37:18;97252.69;;;29.66;100.00
20115;BME280;10218;42.874;25.320;2023-07-13T06:39:46;97248.94;;;29.52;100.00
20115;BME280;10218;42.874;25.320;2023-07-13T06:42:13;97249.13;;;29.89;100.00
20115;BME280;10218;42.874;25.320;2023-07-13T06:44:40;97246.75;;;30.25;100.00
20115;BME280;10218;42.874;25.320;2023-07-13T06:47:08;97253.97;;;30.21;100.00
20115;BME280;10218;42.874;25.320;2023-07-13T06:49:34;97259.16;;;30.23;100.00
20115;BME280;10218;42.874;25.320;2023-07-13T06:52:02;97254.50;;;30.42;100.00
20115;BME280;10218;42.874;25.320;2023-07-13T06:54:29;97255.16;;;30.57;100.00
20115;BME280;10218;42.874;25.320;2023-07-13T06:56:56;97248.78;;;30.76;100.00
20115;BME280;10218;42.874;25.320;2023-07-13T06:59:23;97248.59;;;31.23;100.00
20115;BME280;10218;42.874;25.320;2023-07-13T07:01:50;97254.34;;;31.59;100.00
20115;BME280;10218;42.874;25.320;2023-07-13T07:04:17;97259.03;;;31.59;100.00
20115;BME280;10218;42.874;25.320;2023-07-13T07:06:44;97253.84;;;31.38;100.00
20115;BME280;10218;42.874;25.320;2023-07-13T07:09:12;97251.06;;;31.84;100.00
20115;BME280;10218;42.874;25.320;2023-07-13T07:11:40;97247.63;;;31.47;100.00
20115;BME280;10218;42.874;25.320;2023-07-13T07:14:13;97252.19;;;32.11;100.00
20115;BME280;10218;42.874;25.320;2023-07-13T07:16:40;97253.72;;;32.44;100.00
20115;BME280;10218;42.874;25.320;2023-07-13T07:19:07;97251.09;;;32.12;100.00
20115;BME280;10218;42.874;25.320;2023-07-13T07:21:34;97250.66;;;32.18;100.00
20115;BME280;10218;42.874;25.320;2023-07-13T07:24:01;97247.53;;;32.61;100.00
20115;BME280;10218;42.874;25.320;2023-07-13T07:26:30;97236.25;;;33.16;99.40
20115;BME280;10218;42.874;25.320;2023-07-13T07:29:10;97237.44;;;32.79;100.00
20115;BME280;10218;42.874;25.320;2023-07-13T07:31:40;97238.06;;;32.98;100.00
20115;BME280;10218;42.874;25.320;2023-07-13T07:34:10;97240.72;;;33.03;100.00
20115;BME280;10218;42.874;25.320;2023-07-13T07:36:37;97243.31;;;32.99;98.50
20115;BME280;10218;42.874;25.320;2023-07-13T07:39:07;97253.41;;;33.48;94.77
20115;BME280;10218;42.874;25.320;2023-07-13T07:41:35;97259.44;;;34.12;88.30
20115;BME280;10218;42.874;25.320;2023-07-13T07:44:04;97251.50;;;33.58;94.60
20115;BME280;10218;42.874;25.320;2023-07-13T07:46:34;97245.97;;;34.28;95.30
20115;BME280;10218;42.874;25.320;2023-07-13T07:49:02;97252.84;;;33.91;90.98
20115;BME280;10218;42.874;25.320;2023-07-13T07:51:29;97251.16;;;34.21;90.89
20115;BME280;10218;42.874;25.320;2023-07-13T07:53:56;97247.00;;;33.92;89.38
20115;BME280;10218;42.874;25.320;2023-07-13T07:56:23;97246.47;;;34.30;85.31
20115;BME280;10218;42.874;25.320;2023-07-13T07:58:53;97244.25;;;34.75;76.65
20115;BME280;10218;42.874;25.320;2023-07-13T08:01:23;97252.28;;;34.94;71.85
20115;BME280;10218;42.874;25.320;2023-07-13T08:03:53;97253.84;;;33.95;81.04
20115;BME280;10218;42.874;25.320;2023-07-13T08:06:23;97259.22;;;33.91;80.16
20115;BME280;10218;42.874;25.320;2023-07-13T08:08:54;97255.69;;;34.82;69.44
20115;BME280;10218;42.874;25.320;2023-07-13T08:11:21;97246.50;;;35.42;68.88
20115;BME280;10218;42.874;25.320;2023-07-13T08:13:52;97242.44;;;35.13;64.76
20115;BME280;10218;42.874;25.320;2023-07-13T08:16:20;97250.94;;;35.26;62.33
20115;BME280;10218;42.874;25.320;2023-07-13T08:18:49;97255.63;;;35.68;55.31
20115;BME280;10218;42.874;25.320;2023-07-13T08:21:16;97254.03;;;35.41;52.85
20115;BME280;10218;42.874;25.320;2023-07-13T08:23:43;97253.25;;;35.15;52.50
20115;BME280;10218;42.874;25.320;2023-07-13T08:26:10;97252.25;;;35.28;51.51
20115;BME280;10218;42.874;25.320;2023-07-13T08:28:37;97254.56;;;35.90;54.97
20115;BME280;10218;42.874;25.320;2023-07-13T08:31:06;97256.66;;;35.38;51.59
20115;BME280;10218;42.874;25.320;2023-07-13T08:33:35;97254.47;;;36.16;51.25
20115;BME280;10218;42.874;25.320;2023-07-13T08:36:03;97258.69;;;36.51;51.98
20115;BME280;10218;42.874;25.320;2023-07-13T08:38:30;97258.19;;;36.49;50.09
20115;BME280;10218;42.874;25.320;2023-07-13T08:40:57;97262.81;;;36.07;45.78
20115;BME280;10218;42.874;25.320;2023-07-13T08:43:35;97257.47;;;35.93;45.54
20115;BME280;10218;42.874;25.320;2023-07-13T08:46:12;97268.38;;;36.45;43.58
20115;BME280;10218;42.874;25.320;2023-07-13T08:48:48;97256.44;;;36.07;43.26
20115;BME280;10218;42.874;25.320;2023-07-13T08:53:58;97249.69;;;35.78;43.70
20115;BME280;10218;42.874;25.320;2023-07-13T08:56:29;97256.47;;;36.86;44.91
20115;BME280;10218;42.874;25.320;2023-07-13T08:58:58;97252.75;;;36.32;42.53
20115;BME280;10218;42.874;25.320;2023-07-13T09:04:28;97253.53;;;37.03;42.65
20115;BME280;10218;42.874;25.320;2023-07-13T09:10:09;97240.63;;;37.19;44.29
20115;BME280;10218;42.874;25.320;2023-07-13T09:15:37;97238.28;;;37.42;41.32
20115;BME280;10218;42.874;25.320;2023-07-13T09:18:35;97232.22;;;36.16;40.28
20115;BME280;10218;42.874;25.320;2023-07-13T09:21:22;97230.44;;;37.56;38.36
20115;BME280;10218;42.874;25.320;2023-07-13T09:23:54;97229.78;;;37.06;38.76
20115;BME280;10218;42.874;25.320;2023-07-13T09:26:24;97232.56;;;37.06;38.11
20115;BME280;10218;42.874;25.320;2023-07-13T09:28:55;97223.84;;;36.45;36.98
20115;BME280;10218;42.874;25.320;2023-07-13T09:31:32;97226.56;;;35.48;38.83
20115;BME280;10218;42.874;25.320;2023-07-13T09:34:01;97221.66;;;36.30;38.63
20115;BME280;10218;42.874;25.320;2023-07-13T09:36:30;97224.53;;;37.58;38.32
20115;BME280;10218;42.874;25.320;2023-07-13T09:39:05;97225.03;;;36.85;38.98
20115;BME280;10218;42.874;25.320;2023-07-13T09:41:51;97225.94;;;36.48;38.82
20115;BME280;10218;42.874;25.320;2023-07-13T09:44:37;97220.94;;;37.04;39.64
20115;BME280;10218;42.874;25.320;2023-07-13T09:47:19;97226.91;;;38.65;37.49
20115;BME280;10218;42.874;25.320;2023-07-13T09:49:47;97221.44;;;38.97;37.10
20115;BME280;10218;42.874;25.320;2023-07-13T09:52:15;97218.97;;;37.04;38.64
20115;BME280;10218;42.874;25.320;2023-07-13T09:54:48;97216.56;;;36.61;40.95
20115;BME280;10218;42.874;25.320;2023-07-13T09:57:19;97219.25;;;37.11;40.02
20115;BME280;10218;42.874;25.320;2023-07-13T09:59:52;97215.16;;;38.47;39.76
20115;BME280;10218;42.874;25.320;2023-07-13T10:02:34;97220.00;;;38.75;36.24
20115;BME280;10218;42.874;25.320;2023-07-13T10:07:32;97214.25;;;38.19;37.97
20115;BME280;10218;42.874;25.320;2023-07-13T10:10:00;97202.06;;;36.89;39.55
20115;BME280;10218;42.874;25.320;2023-07-13T10:12:30;97207.03;;;38.55;39.85
20115;BME280;10218;42.874;25.320;2023-07-13T10:15:03;97209.59;;;36.88;41.07
20115;BME280;10218;42.874;25.320;2023-07-13T10:17:43;97211.53;;;35.87;42.72
20115;BME280;10218;42.874;25.320;2023-07-13T10:20:11;97200.03;;;37.76;42.49
20115;BME280;10218;42.874;25.320;2023-07-13T10:25:14;97203.75;;;38.40;41.53
20115;BME280;10218;42.874;25.320;2023-07-13T10:27:43;97205.06;;;37.49;42.95
20115;BME280;10218;42.874;25.320;2023-07-13T10:30:21;97208.47;;;38.88;40.57
20115;BME280;10218;42.874;25.320;2023-07-13T10:32:50;97199.59;;;37.74;40.93
20115;BME280;10218;42.874;25.320;2023-07-13T10:35:19;97200.50;;;37.65;42.36
20115;BME280;10218;42.874;25.320;2023-07-13T10:40:30;97203.50;;;37.60;42.03
20115;BME280;10218;42.874;25.320;2023-07-13T10:43:01;97201.06;;;39.67;38.47
20115;BME280;10218;42.874;25.320;2023-07-13T10:45:34;97195.41;;;37.02;44.02
20115;BME280;10218;42.874;25.320;2023-07-13T10:48:04;97202.97;;;36.80;45.67
20115;BME280;10218;42.874;25.320;2023-07-13T10:50:33;97188.87;;;38.36;42.43
20115;BME280;10218;42.874;25.320;2023-07-13T10:53:15;97198.28;;;38.56;42.20
20115;BME280;10218;42.874;25.320;2023-07-13T10:58:20;97195.22;;;37.52;44.16
20115;BME280;10218;42.874;25.320;2023-07-13T11:01:01;97191.91;;;38.96;41.24
20115;BME280;10218;42.874;25.320;2023-07-13T11:03:31;97199.75;;;38.66;40.80
20115;BME280;10218;42.874;25.320;2023-07-13T11:08:53;97202.44;;;37.20;41.73
20115;BME280;10218;42.874;25.320;2023-07-13T11:11:31;97196.22;;;37.35;45.27
20115;BME280;10218;42.874;25.320;2023-07-13T11:14:25;97212.03;;;38.00;46.71
20115;BME280;10218;42.874;25.320;2023-07-13T11:16:52;97199.59;;;37.41;44.41
20115;BME280;10218;42.874;25.320;2023-07-13T11:25:01;97197.09;;;36.53;46.54
20115;BME280;10218;42.874;25.320;2023-07-13T11:27:38;97203.66;;;37.88;42.99
20115;BME280;10218;42.874;25.320;2023-07-13T11:33:17;97197.09;;;38.69;40.79
20115;BME280;10218;42.874;25.320;2023-07-13T11:35:51;97190.22;;;37.45;41.44
20115;BME280;10218;42.874;25.320;2023-07-13T11:40:55;97183.28;;;39.44;39.87
20115;BME280;10218;42.874;25.320;2023-07-13T11:43:24;97179.97;;;37.04;41.89
20115;BME280;10218;42.874;25.320;2023-07-13T11:45:52;97179.13;;;37.69;46.15
20115;BME280;10218;42.874;25.320;2023-07-13T11:48:26;97186.31;;;37.95;40.96
20115;BME280;10218;42.874;25.320;2023-07-13T11:50:56;97177.38;;;37.65;41.16
20115;BME280;10218;42.874;25.320;2023-07-13T11:53:27;97181.66;;;37.75;40.75
20115;BME280;10218;42.874;25.320;2023-07-13T11:55:55;97176.00;;;37.59;39.57
20115;BME280;10218;42.874;25.320;2023-07-13T11:58:24;97164.00;;;37.71;41.47
20115;BME280;10218;42.874;25.320;2023-07-13T12:00:52;97173.06;;;37.55;39.49
20115;BME280;10218;42.874;25.320;2023-07-13T12:03:22;97167.38;;;38.49;40.65
20115;BME280;10218;42.874;25.320;2023-07-13T12:06:01;97160.28;;;39.98;37.93
20115;BME280;10218;42.874;25.320;2023-07-13T12:08:29;97151.47;;;39.05;40.42
20115;BME280;10218;42.874;25.320;2023-07-13T12:11:16;97153.56;;;39.52;38.43
20115;BME280;10218;42.874;25.320;2023-07-13T12:13:46;97160.88;;;38.33;38.74
20115;BME280;10218;42.874;25.320;2023-07-13T12:16:26;97155.97;;;39.53;36.98
20115;BME280;10218;42.874;25.320;2023-07-13T12:18:56;97148.63;;;38.89;38.75
20115;BME280;10218;42.874;25.320;2023-07-13T12:21:37;97161.50;;;39.81;36.88
20115;BME280;10218;42.874;25.320;2023-07-13T12:24:14;97153.06;;;38.38;36.86
20115;BME280;10218;42.874;25.320;2023-07-13T12:26:41;97143.06;;;39.64;36.05
20115;BME280;10218;42.874;25.320;2023-07-13T12:29:15;97136.66;;;39.48;35.82
20115;BME280;10218;42.874;25.320;2023-07-13T12:31:48;97128.81;;;39.54;34.40
20115;BME280;10218;42.874;25.320;2023-07-13T12:34:17;97121.13;;;41.06;33.90
20115;BME280;10218;42.874;25.320;2023-07-13T12:36:58;97123.22;;;40.55;33.88
20115;BME280;10218;42.874;25.320;2023-07-13T12:39:36;97114.91;;;39.73;35.88
20115;BME280;10218;42.874;25.320;2023-07-13T12:42:26;97117.38;;;39.59;34.33
20115;BME280;10218;42.874;25.320;2023-07-13T12:45:00;97112.72;;;40.87;33.65
20115;BME280;10218;42.874;25.320;2023-07-13T12:47:28;97102.69;;;39.62;35.77
20115;BME280;10218;42.874;25.320;2023-07-13T12:49:58;97092.75;;;39.80;36.14
20115;BME280;10218;42.874;25.320;2023-07-13T12:52:33;97089.09;;;39.01;37.01
20115;BME280;10218;42.874;25.320;2023-07-13T12:55:17;97090.19;;;39.75;36.18
20115;BME280;10218;42.874;25.320;2023-07-13T12:57:50;97088.22;;;39.60;36.57
20115;BME280;10218;42.874;25.320;2023-07-13T13:00:37;97086.19;;;39.41;36.17
20115;BME280;10218;42.874;25.320;2023-07-13T13:06:04;97084.63;;;40.10;35.60
20115;BME280;10218;42.874;25.320;2023-07-13T13:08:33;97077.75;;;39.10;36.28
20115;BME280;10218;42.874;25.320;2023-07-13T13:11:02;97073.06;;;39.92;34.96
20115;BME280;10218;42.874;25.320;2023-07-13T13:13:29;97073.28;;;41.41;33.26
20115;BME280;10218;42.874;25.320;2023-07-13T13:16:01;97063.78;;;39.10;36.45
20115;BME280;10218;42.874;25.320;2023-07-13T13:18:30;97064.81;;;39.99;35.45
20115;BME280;10218;42.874;25.320;2023-07-13T13:20:57;97061.88;;;40.11;34.96
20115;BME280;10218;42.874;25.320;2023-07-13T13:23:24;97059.75;;;38.79;38.12
20115;BME280;10218;42.874;25.320;2023-07-13T13:25:53;97064.00;;;40.53;36.47
20115;BME280;10218;42.874;25.320;2023-07-13T13:28:20;97063.53;;;41.80;34.47
20115;BME280;10218;42.874;25.320;2023-07-13T13:30:49;97061.09;;;41.07;36.17
20115;BME280;10218;42.874;25.320;2023-07-13T13:33:20;97055.91;;;40.67;38.22
20115;BME280;10218;42.874;25.320;2023-07-13T13:35:48;97055.44;;;40.65;35.22